»·PEaware :: N2291C KBFL-KMHV

N2291C :: KBFL-KMHV

FLIGHT INFORMATION

Flight Status: Arrived
Operator: Privately registered:
United States
More flights under this callsign
Pilot: Vincent G. (16149)
Aircraft: CESSNA 172 SKYHAWK
(C172)
More flights by this aircraft type
Origin: KBFL Meadows
United States
Destination: KMHV Mojave
United States
More flights between these airports :: More routes between these airports
Route: +
File this flight plan on PilotEdge
Remarks:
Altitude:
(Current/Filed)
0ft
Speed:
(Current/Filed)
0kts
Departed: 09-Oct-17 07:03 PM
Arrived: 09-Oct-17 07:38 PM
Distance/Time
Traveled:
50nm/0:35
Distance/Time
To Go:
Arrived

Flight Plot

Page will automatically refresh every two minutes.


Map Options




Map Legend


Flown Route
Filed Route
Departure Airport
Arrival Airport
Navaid (VOR, NDB)
Fix

Horizontal Profiles

Position Reports

Time Latitude Longitude Heading Altitude Ground
Speed
09-Oct-17 18:52 35.437172 -119.055636 170 502ft 0kts
09-Oct-17 18:53 35.437172 -119.055636 170 502ft 0kts
09-Oct-17 18:55 35.437170 -119.055636 164 502ft 0kts
09-Oct-17 18:55 35.437070 -119.055599 152 502ft 0kts
09-Oct-17 18:56 35.436493 -119.055281 153 501ft 9kts
09-Oct-17 18:57 35.434433 -119.054692 133 493ft 10kts
09-Oct-17 18:58 35.431676 -119.051352 135 482ft 16kts
09-Oct-17 18:59 35.429911 -119.049167 127 484ft 0kts
09-Oct-17 19:00 35.431533 -119.051194 318 482ft 11kts
09-Oct-17 19:01 35.434645 -119.054927 316 493ft 21kts
09-Oct-17 19:02 35.438624 -119.059749 314 493ft 18kts
09-Oct-17 19:03 35.441941 -119.063755 315 499ft 15kts
09-Oct-17 19:04 35.444904 -119.067342 314 504ft 14kts
09-Oct-17 19:05 35.446847 -119.070448 225 507ft 0kts
09-Oct-17 19:06 35.446828 -119.070472 226 507ft 1kts
09-Oct-17 19:07 35.439470 -119.063060 135 626ft 93kts
09-Oct-17 19:08 35.420125 -119.039254 135 1248ft 97kts
09-Oct-17 19:09 35.400899 -119.014536 120 1819ft 100kts
09-Oct-17 19:10 35.389424 -118.996121 109 2692ft 78kts
09-Oct-17 19:11 35.383793 -118.971275 115 3477ft 75kts
09-Oct-17 19:12 35.374407 -118.948134 116 4207ft 77kts
09-Oct-17 19:13 35.365297 -118.924411 110 4911ft 78kts
09-Oct-17 19:14 35.357998 -118.899429 105 5588ft 78kts
09-Oct-17 19:15 35.350237 -118.874665 123 6240ft 78kts
09-Oct-17 19:16 35.340287 -118.850760 114 6855ft 78kts
09-Oct-17 19:17 35.332033 -118.825595 118 7410ft 83kts
09-Oct-17 19:18 35.320389 -118.798315 111 7557ft 101kts
09-Oct-17 19:19 35.308218 -118.766354 125 7573ft 110kts
09-Oct-17 19:20 35.292421 -118.736472 118 7488ft 103kts
09-Oct-17 19:21 35.280001 -118.706790 118 7483ft 97kts
09-Oct-17 19:22 35.269600 -118.676159 107 7445ft 97kts
09-Oct-17 19:23 35.264438 -118.644583 84 7450ft 93kts
09-Oct-17 19:24 35.255210 -118.614289 115 7312ft 100kts
09-Oct-17 19:25 35.239971 -118.588756 121 7499ft 91kts
09-Oct-17 19:26 35.226445 -118.559563 107 7563ft 111kts
09-Oct-17 19:27 35.216844 -118.525009 115 7699ft 108kts
09-Oct-17 19:28 35.203841 -118.492216 112 7685ft 111kts
09-Oct-17 19:29 35.189828 -118.459355 115 7436ft 106kts
09-Oct-17 19:30 35.176639 -118.429935 115 7462ft 101kts
09-Oct-17 19:31 35.163181 -118.400320 119 7599ft 99kts
09-Oct-17 19:32 35.150052 -118.371019 117 7562ft 97kts
09-Oct-17 19:33 35.139754 -118.340488 124 7307ft 100kts
09-Oct-17 19:34 35.127684 -118.310129 111 7077ft 98kts
09-Oct-17 19:35 35.116385 -118.279422 114 6837ft 98kts
09-Oct-17 19:36 35.106727 -118.248134 111 6489ft 101kts
09-Oct-17 19:37 35.091910 -118.218573 138 5680ft 111kts
09-Oct-17 19:38 35.073357 -118.188496 127 4496ft 112kts
09-Oct-17 19:39 35.066995 -118.156686 87 3864ft 76kts
09-Oct-17 19:40 35.063768 -118.134073 170 3558ft 74kts
09-Oct-17 19:41 35.059235 -118.157952 266 2789ft 63kts
09-Oct-17 19:42 35.059224 -118.164375 272 2782ft 7kts
09-Oct-17 19:43 35.058426 -118.165095 141 2783ft 0kts
09-Oct-17 19:44 35.057913 -118.164589 137 2779ft 16kts
09-Oct-17 19:45 35.057158 -118.157265 119 2765ft 19kts

Navigation Log

Ident Type
1. KBFL Airport
2. KMHV Airport